createdAt,value
2019-04-30T00:00:38.326Z,2.87
2019-04-30T00:01:55.748Z,3.17
2019-04-30T00:03:06.848Z,3.12
2019-04-30T00:04:16.162Z,3.00
2019-04-30T00:05:19.148Z,3.10
2019-04-30T00:06:21.965Z,2.83
2019-04-30T00:07:24.860Z,3.10
2019-04-30T00:08:30.205Z,3.15
2019-04-30T00:09:30.456Z,2.80
2019-04-30T00:10:36.875Z,3.27
2019-04-30T00:11:36.258Z,2.92
2019-04-30T00:12:39.480Z,3.52
2019-04-30T00:13:41.131Z,2.95
2019-04-30T00:14:42.571Z,2.52
2019-04-30T00:15:45.225Z,3.12
2019-04-30T00:16:47.452Z,3.42
2019-04-30T00:17:52.901Z,2.90
2019-04-30T00:18:58.217Z,2.70
2019-04-30T00:19:59.695Z,3.00
2019-04-30T00:20:58.998Z,2.95
2019-04-30T00:22:00.693Z,3.60
2019-04-30T00:23:02.125Z,3.45
2019-04-30T00:24:08.692Z,3.27
2019-04-30T00:25:07.349Z,3.30
2019-04-30T00:26:10.462Z,2.65
2019-04-30T00:27:12.038Z,3.08
2019-04-30T00:28:15.145Z,2.90
2019-04-30T00:29:26.922Z,2.65
2019-04-30T00:30:22.961Z,3.15
2019-04-30T00:31:27.432Z,2.72
2019-04-30T00:32:27.988Z,3.10
2019-04-30T00:33:29.602Z,3.00
2019-04-30T00:34:35.260Z,2.98
2019-04-30T00:35:35.522Z,2.70
2019-04-30T00:36:38.102Z,2.87
2019-04-30T00:37:39.508Z,2.92
2019-04-30T00:38:40.883Z,3.02
2019-04-30T00:39:44.312Z,2.70
2019-04-30T00:40:45.737Z,3.08
2019-04-30T00:41:47.591Z,2.98
2019-04-30T00:42:49.188Z,2.72
2019-04-30T00:43:50.889Z,2.80
2019-04-30T00:44:52.324Z,3.20
2019-04-30T00:45:55.126Z,3.10
2019-04-30T00:47:00.696Z,3.08
2019-04-30T00:48:00.004Z,3.30
2019-04-30T00:49:09.211Z,3.05
2019-04-30T00:50:05.283Z,2.80
2019-04-30T00:51:14.100Z,3.20
2019-04-30T00:52:10.100Z,2.83
2019-04-30T00:53:12.631Z,2.85
2019-04-30T00:54:15.279Z,2.92
2019-04-30T00:55:18.112Z,3.02
2019-04-30T00:56:19.879Z,2.98
2019-04-30T00:57:22.802Z,3.15
2019-04-30T00:58:29.886Z,3.00
2019-04-30T00:59:27.687Z,2.95
2019-04-30T01:00:31.289Z,3.22
2019-04-30T01:01:52.305Z,3.33
2019-04-30T01:02:55.645Z,3.42
2019-04-30T01:04:05.120Z,3.60
2019-04-30T01:05:20.587Z,3.12
2019-04-30T01:06:24.674Z,2.90
2019-04-30T01:07:26.545Z,3.20
2019-04-30T01:08:28.735Z,3.10
2019-04-30T01:09:30.468Z,2.90
2019-04-30T01:10:32.116Z,3.50
2019-04-30T01:11:35.451Z,3.17
2019-04-30T01:12:43.852Z,3.20
2019-04-30T01:13:45.614Z,3.40
2019-04-30T01:14:43.986Z,3.05
2019-04-30T01:15:49.040Z,3.20
2019-04-30T01:16:49.365Z,3.37
2019-04-30T01:17:53.683Z,3.47
2019-04-30T01:18:55.368Z,2.65
2019-04-30T01:19:56.859Z,2.92
2019-04-30T01:20:58.660Z,3.20
2019-04-30T01:22:00.229Z,3.12
2019-04-30T01:23:03.143Z,2.85
2019-04-30T01:24:04.997Z,3.05
2019-04-30T01:25:12.158Z,3.00
2019-04-30T01:26:10.474Z,2.85
2019-04-30T01:27:11.964Z,2.92
2019-04-30T01:28:16.384Z,3.08
2019-04-30T01:29:19.277Z,3.08
2019-04-30T01:30:22.737Z,3.08
2019-04-30T01:31:24.492Z,2.90
2019-04-30T01:32:25.896Z,2.90
2019-04-30T01:33:28.467Z,3.08
2019-04-30T01:34:30.675Z,2.98
2019-04-30T01:35:32.801Z,3.12
2019-04-30T01:36:34.553Z,2.80
2019-04-30T01:37:35.939Z,2.90
2019-04-30T01:38:40.089Z,3.08
2019-04-30T01:39:40.728Z,3.20
2019-04-30T01:40:47.419Z,3.17
2019-04-30T01:41:48.635Z,2.75
2019-04-30T01:42:51.878Z,3.00
2019-04-30T01:43:53.599Z,2.83
2019-04-30T01:44:54.976Z,3.02
2019-04-30T01:45:56.388Z,2.90
2019-04-30T01:46:58.864Z,2.90
2019-04-30T01:48:08.430Z,3.08
2019-04-30T01:49:03.781Z,2.72
2019-04-30T01:50:05.594Z,3.10
2019-04-30T01:51:08.853Z,2.92
2019-04-30T01:52:10.320Z,3.20
2019-04-30T01:53:13.366Z,2.98
2019-04-30T01:54:20.858Z,3.20
2019-04-30T01:55:20.076Z,3.15
2019-04-30T01:56:29.171Z,3.47
2019-04-30T01:57:32.452Z,3.17
2019-04-30T01:58:52.462Z,3.20
2019-04-30T02:00:14.090Z,3.50
2019-04-30T02:01:20.262Z,3.55
2019-04-30T02:02:23.788Z,2.80
2019-04-30T02:03:25.306Z,3.47
2019-04-30T02:04:26.710Z,3.08
2019-04-30T02:05:28.770Z,3.33
2019-04-30T02:06:30.223Z,3.30
2019-04-30T02:07:32.618Z,3.55
2019-04-30T02:08:34.003Z,3.17
2019-04-30T02:09:35.398Z,3.62
2019-04-30T02:10:36.802Z,3.20
2019-04-30T02:11:38.848Z,2.95
2019-04-30T02:12:42.941Z,3.47
2019-04-30T02:13:44.348Z,3.30
2019-04-30T02:14:45.757Z,3.37
2019-04-30T02:15:49.092Z,3.58
2019-04-30T02:16:50.585Z,3.47
2019-04-30T02:17:51.989Z,3.40
2019-04-30T02:18:53.364Z,3.58
2019-04-30T02:19:56.891Z,3.02
2019-04-30T02:20:59.502Z,3.45
2019-04-30T02:22:01.119Z,3.37
2019-04-30T02:23:02.528Z,3.43
2019-04-30T02:24:04.052Z,3.58
2019-04-30T02:25:06.363Z,3.08
2019-04-30T02:26:08.651Z,2.98
2019-04-30T02:27:10.175Z,3.30
2019-04-30T02:28:11.691Z,3.47
2019-04-30T02:29:13.051Z,3.08
2019-04-30T02:30:14.453Z,3.20
2019-04-30T02:31:15.878Z,3.12
2019-04-30T02:32:20.529Z,3.37
2019-04-30T02:33:20.939Z,3.20
2019-04-30T02:34:44.388Z,3.10
2019-04-30T02:35:49.975Z,3.47
2019-04-30T02:36:52.959Z,3.50
2019-04-30T02:38:11.626Z,3.50
2019-04-30T02:39:13.015Z,3.40
2019-04-30T02:40:14.665Z,4.17
2019-04-30T02:41:19.384Z,3.37
2019-04-30T02:42:21.265Z,3.10
2019-04-30T02:43:23.846Z,3.70
2019-04-30T02:44:25.846Z,3.33
2019-04-30T02:45:29.964Z,3.20
2019-04-30T02:46:32.499Z,3.33
2019-04-30T02:47:34.744Z,3.47
2019-04-30T02:48:39.677Z,4.42
2019-04-30T02:49:42.478Z,3.67
2019-04-30T02:50:45.285Z,3.12
2019-04-30T02:51:49.906Z,3.08
2019-04-30T02:52:51.953Z,3.37
2019-04-30T02:54:23.843Z,3.62
2019-04-30T02:55:42.809Z,3.22
2019-04-30T02:56:46.094Z,3.65
2019-04-30T02:57:49.722Z,3.25
2019-04-30T02:58:50.966Z,3.50
2019-04-30T03:00:09.669Z,3.50
2019-04-30T03:01:10.639Z,3.33
2019-04-30T03:02:12.053Z,3.80
2019-04-30T03:03:14.072Z,4.05
2019-04-30T03:04:15.566Z,3.15
2019-04-30T03:05:19.555Z,3.02
2019-04-30T03:06:23.595Z,3.02
2019-04-30T03:07:23.709Z,3.77
2019-04-30T03:08:25.109Z,3.70
2019-04-30T03:09:26.506Z,3.30
2019-04-30T03:10:30.206Z,3.52
2019-04-30T03:11:31.394Z,3.50
2019-04-30T03:12:33.732Z,3.15
2019-04-30T03:13:37.869Z,3.65
2019-04-30T03:14:40.035Z,3.67
2019-04-30T03:15:41.529Z,3.40
2019-04-30T03:16:52.533Z,3.87
2019-04-30T03:17:52.750Z,3.72
2019-04-30T03:19:12.446Z,3.67
2019-04-30T03:20:31.781Z,3.50
2019-04-30T03:21:40.351Z,3.22
2019-04-30T03:22:41.083Z,3.58
2019-04-30T03:23:43.501Z,3.35
2019-04-30T03:24:44.912Z,4.30
2019-04-30T03:25:46.310Z,3.60
2019-04-30T03:26:50.023Z,3.60
2019-04-30T03:27:51.524Z,3.37
2019-04-30T03:28:52.899Z,3.27
2019-04-30T03:29:54.317Z,3.10
2019-04-30T03:30:57.977Z,3.50
2019-04-30T03:32:02.702Z,3.87
2019-04-30T03:33:03.239Z,3.65
2019-04-30T03:34:04.997Z,3.27
2019-04-30T03:35:06.623Z,2.90
2019-04-30T03:36:12.548Z,3.58
2019-04-30T03:37:11.805Z,3.70
2019-04-30T03:38:13.213Z,3.98
2019-04-30T03:39:14.727Z,3.50
2019-04-30T03:40:16.161Z,3.37
2019-04-30T03:41:19.834Z,3.58
2019-04-30T03:42:20.954Z,3.15
2019-04-30T03:43:22.336Z,4.15
2019-04-30T03:44:25.890Z,3.62
2019-04-30T03:45:30.031Z,3.37
2019-04-30T03:46:30.546Z,3.52
2019-04-30T03:47:31.920Z,3.67
2019-04-30T03:48:33.329Z,3.72
2019-04-30T03:49:34.842Z,3.50
2019-04-30T03:50:52.474Z,3.83
2019-04-30T03:51:40.631Z,3.90
2019-04-30T03:52:42.027Z,3.65
2019-04-30T03:53:43.400Z,3.47
2019-04-30T03:54:44.796Z,3.67
2019-04-30T03:55:46.235Z,3.58
2019-04-30T03:56:50.243Z,3.62
2019-04-30T03:57:51.975Z,4.08
2019-04-30T03:58:53.588Z,4.10
2019-04-30T03:59:55.003Z,4.05
2019-04-30T04:01:15.173Z,4.00
2019-04-30T04:02:27.304Z,3.72
2019-04-30T04:03:29.706Z,3.95
2019-04-30T04:04:52.091Z,3.87
2019-04-30T04:05:53.516Z,3.70
2019-04-30T04:06:56.836Z,3.40
2019-04-30T04:08:02.841Z,4.00
2019-04-30T04:09:25.609Z,3.80
2019-04-30T04:10:45.790Z,4.08
2019-04-30T04:11:50.563Z,4.05
2019-04-30T04:12:51.085Z,3.77
2019-04-30T04:13:52.474Z,3.98
2019-04-30T04:14:53.859Z,3.52
2019-04-30T04:15:55.257Z,3.90
2019-04-30T04:16:56.655Z,3.98
2019-04-30T04:18:00.342Z,3.67
2019-04-30T04:19:02.803Z,3.47
2019-04-30T04:20:04.740Z,3.83
2019-04-30T04:21:11.684Z,3.85
2019-04-30T04:22:09.979Z,3.60
2019-04-30T04:23:12.760Z,4.55
2019-04-30T04:24:14.154Z,3.75
2019-04-30T04:25:15.546Z,3.87
2019-04-30T04:26:16.931Z,3.80
2019-04-30T04:27:19.355Z,3.75
2019-04-30T04:28:21.043Z,4.05
2019-04-30T04:29:22.452Z,3.45
2019-04-30T04:30:23.836Z,3.33
2019-04-30T04:31:25.234Z,4.42
2019-04-30T04:32:26.653Z,3.40
2019-04-30T04:33:29.646Z,3.50
2019-04-30T04:34:31.329Z,3.40
2019-04-30T04:35:32.884Z,3.65
2019-04-30T04:36:34.267Z,3.55
2019-04-30T04:37:36.180Z,3.60
2019-04-30T04:38:40.095Z,3.70
2019-04-30T04:39:42.109Z,4.03
2019-04-30T04:40:43.790Z,3.55
2019-04-30T04:41:45.196Z,3.40
2019-04-30T04:42:49.056Z,4.80
2019-04-30T04:43:50.595Z,3.37
2019-04-30T04:44:52.204Z,3.85
2019-04-30T04:45:53.594Z,3.67
2019-04-30T04:46:55.109Z,3.80
2019-04-30T04:47:56.533Z,3.70
2019-04-30T04:48:59.640Z,3.50
2019-04-30T04:50:01.321Z,3.65
2019-04-30T04:51:02.807Z,3.80
2019-04-30T04:52:04.193Z,3.62
2019-04-30T04:53:07.943Z,4.05
2019-04-30T04:54:10.387Z,3.77
2019-04-30T04:55:12.592Z,3.98
2019-04-30T04:56:13.968Z,3.60
2019-04-30T04:57:19.587Z,3.30
2019-04-30T04:58:21.630Z,3.95
2019-04-30T04:59:22.059Z,3.58
2019-04-30T05:00:23.560Z,4.00
2019-04-30T05:01:24.937Z,3.65
2019-04-30T05:02:34.072Z,3.50
2019-04-30T05:03:39.719Z,3.17
2019-04-30T05:04:40.658Z,3.12
2019-04-30T05:05:42.121Z,3.40
2019-04-30T05:06:43.505Z,3.50
2019-04-30T05:07:44.897Z,3.52
2019-04-30T05:08:46.912Z,3.70
2019-04-30T05:09:48.967Z,3.08
2019-04-30T05:10:50.486Z,3.40
2019-04-30T05:11:51.888Z,3.70
2019-04-30T05:12:53.283Z,3.90
2019-04-30T05:13:54.688Z,4.17
2019-04-30T05:14:56.065Z,3.77
2019-04-30T05:15:59.428Z,3.77
2019-04-30T05:17:00.856Z,3.58
2019-04-30T05:18:02.253Z,4.12
2019-04-30T05:19:03.668Z,3.45
2019-04-30T05:20:06.854Z,3.40
2019-04-30T05:21:08.810Z,3.62
2019-04-30T05:22:10.337Z,3.47
2019-04-30T05:23:11.737Z,3.90
2019-04-30T05:24:13.172Z,3.22
2019-04-30T05:25:14.544Z,3.92
2019-04-30T05:26:16.043Z,3.62
2019-04-30T05:27:17.416Z,3.83
2019-04-30T05:28:19.043Z,3.77
2019-04-30T05:29:20.520Z,3.45
2019-04-30T05:30:22.004Z,4.00
2019-04-30T05:31:23.384Z,3.62
2019-04-30T05:32:24.796Z,3.10
2019-04-30T05:33:26.202Z,3.72
2019-04-30T05:34:28.798Z,3.80
2019-04-30T05:35:31.097Z,4.20
2019-04-30T05:36:32.766Z,4.72
2019-04-30T05:37:34.146Z,4.20
2019-04-30T05:38:35.551Z,3.60
2019-04-30T05:39:39.059Z,3.92
2019-04-30T05:40:42.500Z,4.50
2019-04-30T05:41:43.904Z,4.00
2019-04-30T05:42:45.320Z,3.92
2019-04-30T05:43:48.776Z,4.00
2019-04-30T05:44:50.171Z,4.22
2019-04-30T05:45:51.540Z,4.50
2019-04-30T05:46:52.940Z,4.50
2019-04-30T05:47:54.325Z,4.40
2019-04-30T05:48:55.731Z,4.17
2019-04-30T05:49:58.498Z,4.22
2019-04-30T05:51:00.037Z,4.92
2019-04-30T05:52:01.440Z,3.90
2019-04-30T05:53:02.851Z,4.42
2019-04-30T05:54:04.264Z,4.25
2019-04-30T05:55:05.759Z,4.60
2019-04-30T05:56:09.242Z,4.58
2019-04-30T05:57:10.548Z,4.00
2019-04-30T05:58:11.961Z,4.22
2019-04-30T05:59:13.468Z,4.85
2019-04-30T06:00:15.097Z,4.22
2019-04-30T06:01:16.468Z,3.98
2019-04-30T06:02:19.408Z,3.67
2019-04-30T06:03:29.716Z,3.55
2019-04-30T06:04:24.254Z,4.17
2019-04-30T06:05:25.664Z,4.08
2019-04-30T06:06:28.889Z,3.83
2019-04-30T06:07:30.592Z,3.58
2019-04-30T06:08:39.946Z,3.77
2019-04-30T06:09:46.027Z,4.00
2019-04-30T06:10:59.703Z,3.70
2019-04-30T06:12:05.930Z,3.60
2019-04-30T06:13:28.700Z,3.35
2019-04-30T06:14:48.900Z,3.40
2019-04-30T06:15:52.630Z,3.72
2019-04-30T06:17:09.794Z,3.67
2019-04-30T06:18:13.893Z,3.37
2019-04-30T06:19:14.464Z,3.33
2019-04-30T06:20:18.609Z,3.27
2019-04-30T06:21:21.626Z,3.15
2019-04-30T06:22:23.528Z,3.62
2019-04-30T06:23:25.011Z,3.17
2019-04-30T06:24:28.174Z,3.12
2019-04-30T06:25:37.188Z,3.65
2019-04-30T06:26:33.478Z,2.95
2019-04-30T06:27:34.976Z,3.42
2019-04-30T06:28:36.448Z,3.00
2019-04-30T06:29:39.077Z,3.45
2019-04-30T06:30:40.731Z,3.10
2019-04-30T06:31:43.313Z,2.92
2019-04-30T06:32:44.950Z,3.17
2019-04-30T06:33:46.323Z,3.35
2019-04-30T06:34:49.817Z,3.15
2019-04-30T06:35:51.699Z,2.95
2019-04-30T06:36:54.188Z,2.80
2019-04-30T06:37:58.933Z,3.20
2019-04-30T06:39:00.485Z,3.02
2019-04-30T06:40:01.959Z,2.80
2019-04-30T06:41:03.349Z,2.85
2019-04-30T06:42:08.827Z,2.80
2019-04-30T06:43:09.140Z,2.98
2019-04-30T06:44:11.039Z,2.70
2019-04-30T06:45:12.633Z,2.95
2019-04-30T06:46:14.119Z,3.30
2019-04-30T06:47:16.018Z,2.98
2019-04-30T06:48:19.894Z,3.20
2019-04-30T06:49:22.322Z,3.10
2019-04-30T06:50:23.720Z,3.15
2019-04-30T06:51:25.106Z,2.60
2019-04-30T06:52:26.597Z,2.87
2019-04-30T06:53:29.261Z,3.02
2019-04-30T06:54:30.828Z,2.85
2019-04-30T06:55:32.215Z,2.90
2019-04-30T06:56:34.605Z,3.00
2019-04-30T06:57:35.986Z,2.98
2019-04-30T06:58:38.869Z,3.15
2019-04-30T06:59:40.859Z,2.62
2019-04-30T07:00:42.262Z,2.90
2019-04-30T07:01:43.639Z,3.02
2019-04-30T07:02:45.036Z,2.98
2019-04-30T07:03:48.609Z,2.70
2019-04-30T07:04:49.818Z,2.80
2019-04-30T07:05:51.195Z,3.00
2019-04-30T07:06:52.580Z,3.33
2019-04-30T07:08:12.356Z,2.72
2019-04-30T07:09:21.664Z,2.75
2019-04-30T07:10:24.944Z,2.40
2019-04-30T07:11:29.298Z,2.65
2019-04-30T07:12:34.112Z,3.20
2019-04-30T07:13:36.990Z,3.05
2019-04-30T07:14:41.743Z,2.72
2019-04-30T07:15:42.775Z,2.87
2019-04-30T07:16:44.157Z,3.17
2019-04-30T07:17:45.549Z,3.22
2019-04-30T07:18:48.822Z,2.85
2019-04-30T07:19:56.415Z,2.62
2019-04-30T07:20:53.616Z,3.15
2019-04-30T07:21:55.120Z,2.75
2019-04-30T07:23:02.169Z,2.87
2019-04-30T07:23:59.802Z,2.70
2019-04-30T07:25:01.176Z,2.70
2019-04-30T07:26:03.700Z,2.55
2019-04-30T07:27:05.156Z,2.90
2019-04-30T07:28:06.662Z,3.12
2019-04-30T07:29:09.644Z,2.42
2019-04-30T07:30:11.683Z,2.65
2019-04-30T07:31:14.717Z,2.90
2019-04-30T07:32:16.480Z,2.67
2019-04-30T07:33:20.799Z,2.65
2019-04-30T07:34:22.293Z,2.90
2019-04-30T07:35:23.668Z,2.58
2019-04-30T07:36:42.433Z,2.62
2019-04-30T07:37:29.259Z,2.58
2019-04-30T07:38:35.746Z,2.77
2019-04-30T07:39:34.213Z,3.15
2019-04-30T07:40:35.595Z,3.55
2019-04-30T07:41:36.985Z,2.83
2019-04-30T07:42:44.632Z,2.60
2019-04-30T07:43:41.764Z,2.92
2019-04-30T07:44:46.412Z,2.60
2019-04-30T07:45:49.581Z,2.95
2019-04-30T07:46:51.190Z,2.65
2019-04-30T07:47:52.573Z,2.72
2019-04-30T07:48:53.964Z,2.90
2019-04-30T07:49:56.021Z,2.70
2019-04-30T07:50:59.250Z,2.77
2019-04-30T07:52:01.935Z,2.98
2019-04-30T07:53:06.621Z,2.80
2019-04-30T07:54:09.202Z,2.92
2019-04-30T07:55:10.751Z,2.70
2019-04-30T07:56:24.157Z,2.87
2019-04-30T07:57:15.441Z,2.60
2019-04-30T07:58:20.209Z,2.85
2019-04-30T07:59:20.632Z,2.83
2019-04-30T08:00:22.083Z,2.45
2019-04-30T08:01:23.500Z,3.15
2019-04-30T08:02:26.313Z,2.92
2019-04-30T08:03:42.087Z,3.05
2019-04-30T08:04:50.914Z,3.00
2019-04-30T08:05:53.847Z,2.90
2019-04-30T08:06:59.106Z,3.00
2019-04-30T08:08:16.743Z,3.05
2019-04-30T08:09:10.129Z,3.40
2019-04-30T08:10:11.213Z,3.33
2019-04-30T08:11:23.035Z,2.85
2019-04-30T08:12:22.031Z,3.08
2019-04-30T08:13:21.859Z,2.83
2019-04-30T08:14:24.575Z,2.92
2019-04-30T08:15:26.270Z,3.37
2019-04-30T08:16:29.482Z,2.62
2019-04-30T08:17:30.964Z,3.00
2019-04-30T08:18:32.457Z,3.00
2019-04-30T08:19:33.836Z,2.92
2019-04-30T08:20:35.334Z,3.55
2019-04-30T08:21:38.755Z,3.25
2019-04-30T08:22:41.114Z,3.05
2019-04-30T08:23:42.706Z,3.10
2019-04-30T08:24:45.104Z,2.90
2019-04-30T08:25:46.518Z,2.98
2019-04-30T08:26:49.371Z,2.83
2019-04-30T08:27:50.936Z,3.12
2019-04-30T08:28:52.439Z,3.00
2019-04-30T08:29:53.819Z,3.17
2019-04-30T08:30:55.213Z,3.10
2019-04-30T08:31:56.633Z,3.30
2019-04-30T08:32:59.596Z,3.17
2019-04-30T08:34:01.266Z,3.17
2019-04-30T08:35:05.085Z,3.10
2019-04-30T08:36:06.593Z,2.92
2019-04-30T08:37:16.974Z,3.37
2019-04-30T08:38:11.427Z,3.17
2019-04-30T08:39:13.924Z,2.87
2019-04-30T08:40:15.380Z,3.33
2019-04-30T08:41:16.755Z,3.10
2019-04-30T08:42:29.029Z,3.10
2019-04-30T08:43:21.470Z,3.10
2019-04-30T08:44:22.860Z,3.17
2019-04-30T08:45:25.248Z,3.30
2019-04-30T08:46:28.850Z,3.00
2019-04-30T08:47:30.367Z,3.15
2019-04-30T08:48:45.238Z,3.02
2019-04-30T08:49:35.340Z,2.55
2019-04-30T08:50:39.298Z,2.95
2019-04-30T08:51:41.261Z,3.10
2019-04-30T08:52:43.172Z,3.00
2019-04-30T08:53:44.589Z,3.15
2019-04-30T08:54:45.972Z,3.08
2019-04-30T08:55:49.151Z,3.05
2019-04-30T08:56:50.658Z,3.02
2019-04-30T08:57:52.091Z,3.40
2019-04-30T08:58:54.937Z,3.08
2019-04-30T08:59:58.571Z,3.05
2019-04-30T09:01:00.039Z,3.22
2019-04-30T09:02:12.898Z,3.35
2019-04-30T09:03:04.856Z,3.40
2019-04-30T09:04:07.670Z,3.20
2019-04-30T09:05:30.619Z,2.92
2019-04-30T09:06:32.276Z,3.05
2019-04-30T09:07:33.719Z,3.33
2019-04-30T09:08:35.342Z,3.22
2019-04-30T09:09:38.888Z,3.20
2019-04-30T09:10:41.893Z,3.33
2019-04-30T09:11:52.920Z,3.10
2019-04-30T09:12:46.673Z,2.85
2019-04-30T09:13:48.807Z,2.83
2019-04-30T09:14:50.284Z,2.60
2019-04-30T09:15:51.669Z,2.50
2019-04-30T09:16:53.097Z,2.60
2019-04-30T09:18:03.212Z,3.00
2019-04-30T09:18:59.485Z,2.65
2019-04-30T09:20:01.064Z,2.58
2019-04-30T09:21:06.203Z,2.58
2019-04-30T09:22:14.360Z,3.15
2019-04-30T09:23:11.254Z,2.60
2019-04-30T09:24:12.889Z,2.75
2019-04-30T09:25:14.274Z,3.30
2019-04-30T09:26:15.660Z,3.12
2019-04-30T09:27:17.100Z,2.70
2019-04-30T09:28:19.869Z,2.62
2019-04-30T09:29:21.470Z,2.75
2019-04-30T09:30:22.962Z,2.67
2019-04-30T09:31:24.349Z,2.27
2019-04-30T09:32:25.829Z,2.67
2019-04-30T09:33:29.301Z,2.50
2019-04-30T09:34:30.647Z,2.45
2019-04-30T09:35:32.301Z,2.67
2019-04-30T09:36:33.820Z,2.85
2019-04-30T09:37:35.197Z,2.55
2019-04-30T09:38:36.601Z,2.90
2019-04-30T09:39:39.324Z,2.72
2019-04-30T09:40:41.824Z,2.40
2019-04-30T09:41:43.336Z,2.52
2019-04-30T09:42:44.759Z,2.52
2019-04-30T09:43:46.169Z,2.27
2019-04-30T09:44:49.236Z,2.52
2019-04-30T09:45:51.007Z,2.00
2019-04-30T09:46:52.406Z,2.90
2019-04-30T09:47:53.877Z,2.50
2019-04-30T09:48:55.273Z,2.42
2019-04-30T09:49:56.890Z,2.37
2019-04-30T09:51:01.074Z,2.42
2019-04-30T09:52:03.363Z,2.20
2019-04-30T09:53:05.896Z,2.60
2019-04-30T09:54:11.864Z,2.52
2019-04-30T09:55:10.883Z,2.15
2019-04-30T09:56:12.305Z,2.65
2019-04-30T09:57:13.805Z,2.47
2019-04-30T09:58:18.249Z,2.40
2019-04-30T09:59:19.007Z,2.40
2019-04-30T10:00:21.296Z,2.72
2019-04-30T10:01:22.670Z,2.30
2019-04-30T10:02:25.170Z,2.47
2019-04-30T10:03:26.784Z,2.40
2019-04-30T10:04:30.298Z,2.62
2019-04-30T10:05:31.940Z,2.30
2019-04-30T10:06:39.526Z,2.30
2019-04-30T10:07:36.754Z,2.20
2019-04-30T10:08:47.954Z,2.08
2019-04-30T10:09:41.454Z,2.47
2019-04-30T10:10:48.648Z,2.08
2019-04-30T10:11:52.040Z,2.47
2019-04-30T10:12:53.448Z,2.20
2019-04-30T10:13:54.822Z,2.12
2019-04-30T10:14:56.215Z,2.10
2019-04-30T10:16:02.161Z,2.10
2019-04-30T10:17:17.559Z,2.35
2019-04-30T10:18:18.959Z,2.22
2019-04-30T10:19:21.347Z,2.30
2019-04-30T10:20:26.332Z,2.08
2019-04-30T10:21:29.002Z,2.55
2019-04-30T10:22:30.499Z,2.27
2019-04-30T10:23:31.902Z,2.50
2019-04-30T10:24:33.969Z,2.50
2019-04-30T10:25:35.691Z,2.12
2019-04-30T10:26:37.112Z,2.22
2019-04-30T10:27:38.904Z,2.00
2019-04-30T10:28:42.901Z,2.20
2019-04-30T10:29:44.379Z,2.45
2019-04-30T10:30:45.876Z,2.20
2019-04-30T10:31:48.998Z,2.30
2019-04-30T10:32:50.498Z,2.25
2019-04-30T10:33:51.897Z,2.70
2019-04-30T10:34:53.268Z,2.02
2019-04-30T10:35:54.668Z,2.42
2019-04-30T10:36:56.092Z,2.25
2019-04-30T10:37:59.211Z,2.22
2019-04-30T10:39:00.880Z,2.10
2019-04-30T10:40:03.198Z,2.10
2019-04-30T10:41:04.671Z,2.00
2019-04-30T10:42:06.248Z,1.90
2019-04-30T10:43:08.905Z,2.00
2019-04-30T10:44:10.559Z,1.90
2019-04-30T10:45:12.590Z,2.20
2019-04-30T10:46:13.984Z,2.05
2019-04-30T10:47:15.515Z,2.33
2019-04-30T10:48:16.895Z,2.10
2019-04-30T10:49:19.484Z,2.12
2019-04-30T10:50:21.897Z,2.00
2019-04-30T10:51:23.299Z,2.40
2019-04-30T10:52:24.709Z,2.30
2019-04-30T10:53:26.229Z,1.95
2019-04-30T10:54:28.942Z,2.10
2019-04-30T10:55:31.109Z,2.25
2019-04-30T10:56:32.774Z,2.30
2019-04-30T10:57:35.178Z,2.30
2019-04-30T10:58:36.549Z,2.08
2019-04-30T10:59:37.955Z,2.17
2019-04-30T11:00:40.872Z,2.30
2019-04-30T11:01:42.281Z,2.10
2019-04-30T11:02:43.711Z,2.58
2019-04-30T11:03:45.082Z,2.08
2019-04-30T11:04:46.584Z,2.20
2019-04-30T11:05:48.815Z,2.60
2019-04-30T11:06:50.366Z,2.30
2019-04-30T11:07:51.895Z,2.12
2019-04-30T11:08:53.402Z,2.17
2019-04-30T11:09:54.824Z,2.00
2019-04-30T11:10:56.323Z,1.87
2019-04-30T11:11:59.418Z,2.58
2019-04-30T11:13:00.905Z,1.92
2019-04-30T11:14:02.293Z,1.82
2019-04-30T11:15:05.575Z,2.25
2019-04-30T11:16:14.753Z,2.37
2019-04-30T11:17:10.539Z,1.87
2019-04-30T11:18:12.733Z,2.10
2019-04-30T11:19:14.426Z,2.17
2019-04-30T11:20:16.662Z,2.17
2019-04-30T11:21:19.730Z,2.05
2019-04-30T11:22:21.713Z,2.05
2019-04-30T11:23:23.505Z,2.00
2019-04-30T11:24:35.929Z,1.92
2019-04-30T11:25:30.815Z,2.30
2019-04-30T11:26:32.622Z,2.10
2019-04-30T11:27:35.926Z,2.60
2019-04-30T11:28:38.064Z,2.40
2019-04-30T11:29:39.901Z,2.20
2019-04-30T11:30:43.745Z,2.72
2019-04-30T11:31:59.267Z,2.58
2019-04-30T11:33:01.064Z,2.98
2019-04-30T11:34:03.858Z,2.12
2019-04-30T11:35:05.542Z,2.12
2019-04-30T11:36:06.932Z,2.50
2019-04-30T11:37:08.411Z,2.25
2019-04-30T11:38:09.817Z,2.35
2019-04-30T11:39:13.138Z,2.58
2019-04-30T11:40:16.500Z,2.70
2019-04-30T11:41:29.786Z,2.42
2019-04-30T11:42:21.276Z,2.33
2019-04-30T11:43:22.655Z,2.22
2019-04-30T11:44:30.858Z,2.65
2019-04-30T11:45:52.950Z,2.33
2019-04-30T11:47:00.971Z,2.80
2019-04-30T11:48:02.444Z,2.40
2019-04-30T11:49:04.040Z,2.67
2019-04-30T11:50:08.441Z,2.50
2019-04-30T11:51:09.848Z,2.58
2019-04-30T11:52:11.499Z,2.42
2019-04-30T11:53:24.713Z,2.33
2019-04-30T11:54:16.220Z,2.80
2019-04-30T11:55:19.300Z,2.33
2019-04-30T11:56:20.795Z,2.30
2019-04-30T11:57:22.194Z,2.67
2019-04-30T11:58:23.569Z,2.90
2019-04-30T11:59:24.975Z,2.25
2019-04-30T12:00:29.665Z,2.95
2019-04-30T12:01:31.644Z,2.35
2019-04-30T12:02:34.948Z,2.65
2019-04-30T12:03:36.334Z,2.72
2019-04-30T12:04:39.344Z,3.08
2019-04-30T12:05:40.840Z,2.50
2019-04-30T12:06:42.369Z,2.50
2019-04-30T12:07:50.614Z,2.50
2019-04-30T12:08:59.418Z,2.67
2019-04-30T12:10:09.491Z,2.90
2019-04-30T12:11:18.885Z,2.47
2019-04-30T12:12:20.261Z,2.35
2019-04-30T12:13:29.078Z,2.47
2019-04-30T12:14:30.757Z,2.83
2019-04-30T12:15:32.354Z,2.65
2019-04-30T12:16:33.859Z,2.85
2019-04-30T12:17:35.576Z,2.52
2019-04-30T12:18:37.087Z,2.70
2019-04-30T12:19:38.895Z,2.40
2019-04-30T12:20:40.408Z,2.50
2019-04-30T12:21:41.818Z,2.80
2019-04-30T12:22:43.297Z,2.87
2019-04-30T12:23:45.049Z,2.52
2019-04-30T12:24:46.439Z,2.80
2019-04-30T12:25:49.272Z,2.80
2019-04-30T12:26:50.831Z,2.50
2019-04-30T12:27:53.235Z,2.77
2019-04-30T12:28:54.668Z,2.70
2019-04-30T12:29:56.066Z,2.77
2019-04-30T12:30:58.877Z,3.00
2019-04-30T12:32:00.538Z,2.65
2019-04-30T12:33:02.017Z,2.55
2019-04-30T12:34:03.417Z,2.85
2019-04-30T12:35:06.097Z,2.70
2019-04-30T12:36:09.020Z,2.67
2019-04-30T12:37:10.804Z,2.70
2019-04-30T12:38:12.202Z,2.47
2019-04-30T12:39:13.594Z,2.80
2019-04-30T12:40:26.711Z,2.70
2019-04-30T12:41:18.720Z,2.70
2019-04-30T12:42:20.153Z,2.40
2019-04-30T12:43:21.637Z,2.65
2019-04-30T12:44:23.126Z,2.60
2019-04-30T12:45:24.612Z,2.00
2019-04-30T12:46:26.026Z,2.52
2019-04-30T12:47:29.610Z,2.17
2019-04-30T12:48:33.070Z,3.05
2019-04-30T12:49:45.348Z,2.50
2019-04-30T12:50:49.176Z,2.58
2019-04-30T12:52:04.394Z,2.62
2019-04-30T12:53:09.420Z,2.67
2019-04-30T12:54:12.821Z,2.95
2019-04-30T12:55:16.135Z,2.50
2019-04-30T12:56:27.086Z,2.22
2019-04-30T12:57:29.323Z,2.77
2019-04-30T12:58:30.700Z,2.92
2019-04-30T12:59:32.812Z,2.90
2019-04-30T13:00:34.426Z,2.55
2019-04-30T13:01:35.933Z,2.42
2019-04-30T13:02:37.338Z,3.00
2019-04-30T13:03:39.893Z,2.83
2019-04-30T13:04:41.548Z,2.70
2019-04-30T13:05:43.236Z,2.85
2019-04-30T13:06:48.181Z,2.85
2019-04-30T13:07:50.098Z,3.08
2019-04-30T13:08:52.537Z,2.85
2019-04-30T13:09:54.924Z,2.47
2019-04-30T13:10:57.145Z,2.60
2019-04-30T13:12:00.457Z,2.83
2019-04-30T13:13:02.589Z,2.95
2019-04-30T13:14:05.513Z,2.80
2019-04-30T13:15:09.458Z,2.90
2019-04-30T13:16:10.845Z,2.58
2019-04-30T13:17:12.428Z,2.17
2019-04-30T13:18:13.819Z,2.85
2019-04-30T13:19:15.317Z,2.52
2019-04-30T13:20:23.436Z,2.58
2019-04-30T13:21:21.810Z,2.85
2019-04-30T13:22:23.186Z,2.33
2019-04-30T13:23:24.592Z,2.42
2019-04-30T13:24:26.177Z,2.45
2019-04-30T13:25:34.187Z,2.35
2019-04-30T13:26:31.092Z,2.65
2019-04-30T13:27:34.380Z,3.17
2019-04-30T13:28:40.609Z,2.52
2019-04-30T13:29:49.574Z,2.77
2019-04-30T13:30:51.057Z,2.58
2019-04-30T13:31:52.461Z,2.60
2019-04-30T13:33:09.463Z,2.87
2019-04-30T13:34:30.025Z,2.58
2019-04-30T13:35:31.821Z,2.50
2019-04-30T13:36:33.317Z,2.58
2019-04-30T13:37:36.605Z,2.33
2019-04-30T13:38:49.182Z,2.42
2019-04-30T13:39:54.164Z,2.00
2019-04-30T13:40:58.806Z,2.40
2019-04-30T13:42:14.995Z,2.40
2019-04-30T13:43:09.959Z,2.17
2019-04-30T13:44:12.656Z,2.20
2019-04-30T13:45:14.422Z,2.08
2019-04-30T13:46:15.900Z,2.47
2019-04-30T13:47:19.082Z,2.47
2019-04-30T13:48:20.577Z,2.50
2019-04-30T13:49:21.980Z,2.37
2019-04-30T13:50:23.467Z,2.35
2019-04-30T13:51:24.856Z,2.60
2019-04-30T13:52:26.365Z,2.40
2019-04-30T13:53:28.442Z,2.30
2019-04-30T13:54:29.841Z,2.65
2019-04-30T13:55:43.009Z,2.35
2019-04-30T13:56:34.681Z,2.80
2019-04-30T13:57:36.077Z,2.60
2019-04-30T13:58:37.471Z,2.75
2019-04-30T13:59:38.876Z,2.42